Morro Grande, Brazil
Current Conditions -  °F | °C
As of 2:00 PM on Tuesday 21 Oct 2014 (Local Time) from SBCM Reporting Station
Few Clouds Few Clouds  
Wind Chill: 72°   Ceiling: Unl
Heat Index: 72°   Visibility: 6mi
Dew Point: 57°   Wind: 10mph
Humidity: 60%   Direction: 130°SE
Pressure: 30.18"   Gusts: NA
Location:  28.8°S, 49.72°W
Report Text: SBCM 211600Z 13009KT 9999 FEW040 22/14 Q1022
Loading
Personal Weather Stations






























Interactive Weather Map
Tropical Storm Tracking
New forecast layout! Learn more

10-Day Weather Forecast

Advertisements
Track Severe Weather on mobile